Time;durP1;ratioP1;P1;durP2;ratioP2;P2;SDS_P1;SDS_P2;PMS_P1;PMS_P2;Temp;Humidity;BMP_temperature;BMP_pressure;BME280_temperature;BME280_humidity;BME280_pressure;Samples;Min_cycle;Max_cycle;Signal;HPM_P1;HPM_P2
2022/09/01 00:01:41;;;;;;;1.60;1.50;;;23.10;99.00;;;23.44;49.08;101581.81;4921579;28;97342;-45
2022/09/01 00:04:14;;;;;;;1.63;1.53;;;23.10;97.00;;;23.41;49.21;101572.13;4914109;28;97445;-45
2022/09/01 00:06:41;;;;;;;2.97;2.50;;;23.00;97.00;;;23.34;49.31;101570.88;4910827;28;97747;-45
2022/09/01 00:09:14;;;;;;;1.70;1.60;;;22.90;96.80;;;23.31;50.09;101564.88;4910603;28;97000;-44
2022/09/01 00:11:44;;;;;;;3.60;2.80;;;22.80;97.50;;;23.23;48.68;101568.13;4922930;28;96748;-46
2022/09/01 00:14:11;;;;;;;3.00;2.50;;;22.70;96.80;;;23.15;49.14;101575.91;4918571;28;97011;-44
2022/09/01 00:16:37;;;;;;;1.67;1.57;;;22.60;97.20;;;23.13;51.07;101572.44;4918409;28;97268;-48
2022/09/01 00:19:05;;;;;;;1.30;1.20;;;22.60;99.80;;;23.14;51.31;101579.56;4911445;28;107184;-44
2022/09/01 00:21:37;;;;;;;2.10;1.37;;;22.60;99.90;;;23.17;50.69;101582.03;4927127;28;97221;-44
2022/09/01 00:24:04;;;;;;;1.53;1.43;;;22.70;98.90;;;23.18;50.97;101580.22;4909192;28;97240;-45
2022/09/01 00:26:30;;;;;;;3.47;2.30;;;22.70;99.60;;;23.16;49.30;101580.31;4907480;28;97513;-44
2022/09/01 00:28:56;;;;;;;2.07;1.80;;;22.70;97.10;;;23.11;50.68;101590.53;4910565;28;97670;-44
2022/09/01 00:31:23;;;;;;;1.40;1.30;;;22.60;98.30;;;23.13;51.48;101583.22;4909154;28;97466;-44
2022/09/01 00:33:50;;;;;;;2.97;2.57;;;22.70;99.90;;;23.13;49.87;101588.59;4909060;28;97005;-43
2022/09/01 00:36:17;;;;;;;2.10;1.87;;;22.70;97.60;;;23.14;50.26;101590.31;4910637;28;96973;-44
2022/09/01 00:38:44;;;;;;;1.60;1.50;;;22.70;98.50;;;23.16;50.80;101588.41;4922574;28;99364;-44
2022/09/01 00:41:10;;;;;;;1.60;1.50;;;22.70;99.20;;;23.16;50.20;101583.00;4913618;28;109394;-46
2022/09/01 00:43:47;;;;;;;1.40;1.30;;;22.70;97.90;;;23.17;51.22;101582.03;4921906;28;96865;-45
2022/09/01 00:46:18;;;;;;;1.40;1.30;;;22.70;99.90;;;23.20;51.19;101581.81;4911068;28;100299;-45
2022/09/01 00:48:44;;;;;;;1.50;1.40;;;22.80;99.90;;;23.24;51.13;101585.97;4914040;28;99771;-54
2022/09/01 00:51:12;;;;;;;1.43;1.33;;;22.90;99.90;;;23.27;51.26;101584.88;4926411;28;97177;-45
2022/09/01 00:53:42;;;;;;;1.53;1.43;;;22.90;99.90;;;23.31;50.70;101579.19;4921334;28;97161;-46
2022/09/01 00:56:09;;;;;;;1.40;1.27;;;23.00;99.90;;;23.32;50.71;101582.72;4917131;28;97398;-44
2022/09/01 00:58:36;;;;;;;1.50;1.40;;;23.00;99.70;;;23.32;50.83;101580.91;4913698;28;97009;-46
2022/09/01 01:01:06;;;;;;;1.60;1.50;;;23.00;99.90;;;23.31;50.66;101579.19;4914623;28;97182;-45
2022/09/01 01:03:32;;;;;;;1.30;1.20;;;22.90;99.60;;;23.28;50.33;101582.06;4914870;28;98419;-44
2022/09/01 01:06:07;;;;;;;2.73;1.50;;;22.90;98.30;;;23.29;50.41;101577.56;4918266;28;98645;-45
2022/09/01 01:08:37;;;;;;;1.50;1.40;;;22.90;98.90;;;23.26;50.20;101584.03;4916929;28;97487;-44
2022/09/01 01:11:16;;;;;;;1.70;1.60;;;22.90;98.20;;;23.26;50.72;101567.88;4916874;28;96802;-46
2022/09/01 01:14:11;;;;;;;1.50;1.40;;;22.80;99.80;;;23.24;51.28;101575.22;4912634;28;97544;-46
2022/09/01 01:16:42;;;;;;;2.43;1.53;;;22.80;99.90;;;23.24;50.06;101577.03;4911229;28;102057;-47
2022/09/01 01:25:03;;;;;;;1.40;1.30;;;22.70;99.90;;;23.21;51.50;101579.97;4916412;28;97219;-47
2022/09/01 01:27:34;;;;;;;1.30;1.20;;;22.80;99.90;;;23.24;50.65;101575.22;4918608;28;97468;-44
2022/09/01 01:30:08;;;;;;;1.40;1.30;;;22.90;99.10;;;23.24;51.08;101575.22;4911070;28;97000;-44
2022/09/01 01:32:34;;;;;;;3.73;1.70;;;22.90;99.90;;;23.24;50.27;101579.75;4917631;28;102386;-45
2022/09/01 01:35:04;;;;;;;1.47;1.37;;;22.90;98.30;;;23.18;50.84;101583.75;4922471;28;97207;-45
2022/09/01 01:37:34;;;;;;;1.83;1.70;;;22.70;99.30;;;23.15;50.66;101574.09;4918221;28;97867;-47
2022/09/01 01:40:01;;;;;;;3.23;2.10;;;22.70;98.40;;;23.11;50.20;101577.94;4917891;28;97029;-44
2022/09/01 01:42:27;;;;;;;1.63;1.30;;;22.60;97.80;;;23.07;50.80;101579.16;4926712;28;97965;-45
2022/09/01 01:44:54;;;;;;;1.60;1.50;;;22.60;98.60;;;23.05;51.04;101585.63;4908433;28;97476;-45
2022/09/01 01:47:20;;;;;;;1.60;1.50;;;22.50;98.90;;;22.97;51.50;101585.31;4910539;28;97617;-46
2022/09/01 01:49:46;;;;;;;2.90;1.83;;;22.40;99.50;;;22.90;51.53;101576.84;4925162;28;97463;-48
2022/09/01 01:52:16;;;;;;;1.70;1.60;;;22.30;99.20;;;22.92;52.17;101585.66;4913747;28;97306;-46
2022/09/01 01:54:45;;;;;;;1.27;1.17;;;22.30;99.90;;;22.98;52.10;101587.03;4917545;28;97007;-45
2022/09/01 01:57:15;;;;;;;2.93;1.60;;;22.50;99.90;;;23.04;51.97;101586.59;4910535;28;100642;-44
2022/09/01 01:59:42;;;;;;;1.40;1.30;;;22.60;99.90;;;23.10;51.77;101588.81;4919546;28;98998;-48
2022/09/01 02:02:08;;;;;;;1.50;1.40;;;22.70;99.90;;;23.14;51.43;101590.31;4916469;28;98484;-46
2022/09/01 02:04:35;;;;;;;1.37;1.27;;;22.80;99.90;;;23.14;51.58;101591.16;4923841;28;97119;-46
2022/09/01 02:07:01;;;;;;;1.53;1.43;;;22.80;99.90;;;23.20;51.49;101589.88;4911437;28;98040;-48
2022/09/01 02:09:26;;;;;;;3.00;1.80;;;22.90;99.90;;;23.23;51.34;101584.25;4913605;28;96902;-44
2022/09/01 02:11:56;;;;;;;1.93;1.63;;;22.90;99.90;;;23.27;49.79;101580.34;4912511;28;97273;-46
2022/09/01 02:14:22;;;;;;;2.67;2.20;;;23.00;98.90;;;23.24;49.65;101574.34;4916351;28;97342;-44
2022/09/01 02:16:48;;;;;;;2.50;2.30;;;22.90;97.60;;;23.18;49.93;101581.06;4917733;28;97604;-43
2022/09/01 02:19:19;;;;;;;1.40;1.30;;;22.70;97.60;;;23.12;51.29;101589.56;4916279;28;99907;-48
2022/09/01 02:21:47;;;;;;;1.30;1.20;;;22.60;99.80;;;23.12;51.59;101578.81;4916840;28;97281;-45
2022/09/01 02:24:14;;;;;;;3.20;1.77;;;22.60;99.90;;;23.12;50.72;101578.81;4918531;28;97243;-45
2022/09/01 02:26:47;;;;;;;2.10;2.00;;;22.60;98.50;;;23.13;50.62;101584.06;4915860;28;97099;-46
2022/09/01 02:29:21;;;;;;;1.67;1.30;;;22.70;98.50;;;23.16;51.54;101577.63;4915094;28;99918;-47
2022/09/01 02:31:51;;;;;;;1.33;1.23;;;22.70;99.90;;;23.20;51.54;101583.63;4914317;28;96709;-45
2022/09/01 02:34:19;;;;;;;1.30;1.20;;;22.80;99.90;;;23.20;51.03;101573.72;4924384;28;97074;-44
2022/09/01 02:36:49;;;;;;;1.50;1.40;;;22.90;99.90;;;23.25;51.38;101574.22;4915889;28;99159;-45
2022/09/01 02:39:22;;;;;;;1.23;1.17;;;22.90;99.90;;;23.32;51.29;101574.66;4923514;28;97679;-47
2022/09/01 02:41:50;;;;;;;1.43;1.20;;;23.00;99.90;;;23.33;51.10;101569.16;4906235;28;97190;-45
2022/09/01 02:44:18;;;;;;;2.47;2.27;;;23.10;99.90;;;23.34;49.91;101570.88;4921374;28;97115;-44
2022/09/01 02:46:45;;;;;;;1.53;1.43;;;23.10;98.10;;;23.36;51.04;101582.38;4904785;28;98483;-56
2022/09/01 02:49:25;;;;;;;1.67;1.50;;;23.10;99.90;;;23.37;50.81;101570.63;4911751;28;101918;-45
2022/09/01 02:51:53;;;;;;;1.43;1.33;;;23.10;99.90;;;23.40;50.88;101575.78;4925117;28;97650;-47
2022/09/01 02:54:21;;;;;;;1.27;1.17;;;23.10;99.90;;;23.44;50.84;101576.44;4914665;28;99383;-45
2022/09/01 02:56:48;;;;;;;1.50;1.40;;;23.20;99.90;;;23.47;50.85;101576.19;4905151;28;97616;-47
2022/09/01 02:59:20;;;;;;;1.33;1.23;;;23.20;99.90;;;23.50;49.71;101581.34;4912535;28;102818;-44
2022/09/01 03:01:49;;;;;;;1.70;1.20;;;23.30;99.00;;;23.49;49.95;101581.47;4913071;28;97090;-45
2022/09/01 03:04:17;;;;;;;1.53;1.43;;;23.20;98.90;;;23.45;50.57;101581.69;4924734;28;97165;-46
2022/09/01 03:06:44;;;;;;;1.53;1.43;;;23.10;99.90;;;23.41;50.01;101580.19;4918233;28;97790;-45
2022/09/01 03:09:17;;;;;;;1.27;1.17;;;23.00;98.10;;;23.41;50.90;101577.50;4906474;28;101813;-45
2022/09/01 03:11:48;;;;;;;1.50;1.37;;;23.00;99.90;;;23.40;50.88;101570.41;4909504;28;96988;-47
2022/09/01 03:14:15;;;;;;;1.70;1.60;;;23.10;99.90;;;23.40;49.90;101575.78;4913357;28;98554;-46
2022/09/01 03:16:42;;;;;;;1.70;1.60;;;23.10;98.50;;;23.39;50.57;101578.59;4917387;28;97623;-46
2022/09/01 03:19:09;;;;;;;1.53;1.43;;;23.00;99.90;;;23.38;50.26;101587.66;4911573;28;97231;-45
2022/09/01 03:21:39;;;;;;;3.23;2.10;;;23.00;98.80;;;23.33;49.06;101579.94;4924277;28;97253;-44
2022/09/01 03:24:07;;;;;;;1.30;1.20;;;23.00;96.90;;;23.33;51.07;101582.63;4910392;28;97502;-43
2022/09/01 03:26:35;;;;;;;1.50;1.40;;;23.00;99.90;;;23.33;50.55;101585.31;4916964;28;97605;-45
2022/09/01 03:29:02;;;;;;;1.50;1.40;;;23.00;99.30;;;23.29;50.75;101583.81;4911398;28;98425;-44
2022/09/01 03:31:28;;;;;;;1.70;1.60;;;22.90;99.90;;;23.26;50.04;101589.41;4916223;28;97222;-46
2022/09/01 03:33:55;;;;;;;3.93;2.00;;;22.80;97.50;;;23.19;48.68;101577.41;4919715;28;97072;-46
2022/09/01 03:36:23;;;;;;;3.30;2.50;;;22.70;96.60;;;23.04;49.16;101578.53;4917473;28;97237;-48
2022/09/01 03:38:51;;;;;;;3.10;2.33;;;22.50;96.90;;;22.91;49.97;101577.72;4909268;28;97598;-44
2022/09/01 03:41:29;;;;;;;1.70;1.60;;;22.30;97.40;;;22.92;51.97;101574.91;4919575;28;97311;-45
2022/09/01 03:43:58;;;;;;;1.50;1.40;;;22.30;99.90;;;22.92;51.98;101579.44;4915540;28;97049;-45
2022/09/01 03:46:26;;;;;;;1.57;1.47;;;22.40;99.90;;;22.95;51.96;101579.19;4919497;28;101138;-46
2022/09/01 03:48:57;;;;;;;1.50;1.40;;;22.40;99.90;;;22.97;51.97;101577.25;4910134;28;97396;-44
2022/09/01 03:51:25;;;;;;;1.30;1.20;;;22.50;99.90;;;22.98;51.86;101570.91;4917733;28;97239;-45
2022/09/01 03:53:53;;;;;;;1.47;1.37;;;22.50;99.90;;;23.01;51.79;101573.38;4923983;28;97073;-44
2022/09/01 03:56:20;;;;;;;1.53;1.43;;;22.50;99.90;;;23.04;51.40;101573.16;4917520;28;98105;-45
2022/09/01 03:58:46;;;;;;;1.57;1.47;;;22.70;99.90;;;23.08;51.66;101569.25;4918765;28;98495;-45
2022/09/01 04:01:14;;;;;;;1.57;1.10;;;22.70;99.90;;;23.08;51.52;101569.25;4911850;28;96870;-44
2022/09/01 04:03:42;;;;;;;2.30;2.10;;;22.70;99.90;;;23.09;49.97;101570.97;4911477;28;97176;-44
2022/09/01 04:06:09;;;;;;;1.50;1.40;;;22.70;98.10;;;23.08;51.19;101574.63;4910072;28;99154;-44
2022/09/01 04:08:35;;;;;;;1.67;1.57;;;22.70;99.80;;;23.05;51.09;101569.50;4907594;28;102029;-46
2022/09/01 04:11:14;;;;;;;1.73;1.37;;;22.60;98.80;;;23.08;51.67;101569.25;4911146;28;97190;-45
2022/09/01 04:13:41;;;;;;;2.27;1.53;;;22.60;99.90;;;23.01;50.81;101570.69;4902100;28;99970;-47
2022/09/01 04:19:14;;;;;;;1.50;1.40;;;22.50;99.90;;;23.02;51.77;101567.03;4913456;28;97420;-44
2022/09/01 04:21:42;;;;;;;1.77;1.57;;;22.60;99.90;;;23.04;51.58;101567.78;4922243;28;97078;-44
2022/09/01 04:24:10;;;;;;;1.53;1.43;;;22.60;99.90;;;23.01;50.99;101568.00;4909845;28;97015;-52
2022/09/01 04:26:37;;;;;;;1.87;1.23;;;22.60;98.20;;;22.99;51.59;101564.53;4921728;28;97607;-51
2022/09/01 04:29:03;;;;;;;1.83;1.73;;;22.50;99.90;;;22.98;51.33;101573.59;4903583;28;97292;-48
2022/09/01 04:31:30;;;;;;;1.00;1.00;;;22.50;99.80;;;22.94;51.89;101572.09;4906385;28;98868;-47
2022/09/01 04:33:57;;;;;;;2.37;1.70;;;22.50;99.90;;;22.95;50.94;101579.19;4909839;28;97229;-49
2022/09/01 04:36:32;;;;;;;1.50;1.40;;;22.40;98.50;;;22.96;51.88;101570.16;4910914;28;97008;-51
2022/09/01 04:39:00;;;;;;;1.43;1.33;;;22.40;99.90;;;22.93;50.85;101571.25;4895779;28;98892;-48
2022/09/01 04:41:31;;;;;;;1.60;1.50;;;22.40;97.90;;;22.91;52.02;101577.72;4904614;28;97077;-50
2022/09/01 04:44:03;;;;;;;4.00;1.90;;;22.40;99.90;;;22.84;51.06;101577.28;4899929;28;97172;-46
2022/09/01 04:46:34;;;;;;;2.47;1.90;;;22.30;97.90;;;22.77;51.58;101568.78;4915032;28;99167;-47
2022/09/01 04:49:08;;;;;;;1.57;1.47;;;22.20;98.20;;;22.75;52.54;101572.56;4914879;28;97450;-53
2022/09/01 04:51:42;;;;;;;2.73;2.13;;;22.10;99.90;;;22.73;51.19;101578.03;4916584;28;97034;-53
2022/09/01 04:54:13;;;;;;;1.33;1.23;;;22.20;98.40;;;22.72;52.21;101578.16;4911064;28;97603;-46
2022/09/01 04:56:48;;;;;;;2.83;1.90;;;22.10;99.80;;;22.71;51.21;101581.78;4919428;28;99968;-56
2022/09/01 04:59:14;;;;;;;3.83;1.67;;;22.10;98.30;;;22.67;52.14;101573.09;4910528;28;100034;-49
2022/09/01 05:01:44;;;;;;;1.47;1.33;;;22.10;99.70;;;22.67;52.15;101572.22;4914966;28;97816;-48
2022/09/01 05:04:16;;;;;;;3.80;2.30;;;22.10;99.90;;;22.61;51.09;101581.63;4913415;28;98217;-51
2022/09/01 05:06:48;;;;;;;4.83;2.20;;;22.00;98.40;;;22.59;51.87;101575.50;4912565;28;97577;-50
2022/09/01 05:09:16;;;;;;;3.50;1.60;;;22.00;98.40;;;22.57;52.65;101577.44;4910375;28;101354;-50
2022/09/01 05:11:44;;;;;;;2.33;1.80;;;21.90;99.90;;;22.52;52.74;101577.75;4898153;28;97650;-51
2022/09/01 05:14:12;;;;;;;5.27;2.60;;;21.90;99.60;;;22.52;51.22;101582.25;4912610;28;97284;-51
2022/09/01 05:16:41;;;;;;;1.93;1.83;;;21.90;98.40;;;22.54;51.96;101581.19;4914757;28;97362;-49
2022/09/01 05:19:13;;;;;;;1.30;1.20;;;21.90;98.50;;;22.57;52.57;101585.50;4912629;28;96785;-45
2022/09/01 05:21:44;;;;;;;1.50;1.40;;;22.00;99.90;;;22.60;52.85;101579.91;4924386;28;99688;-50
2022/09/01 05:24:20;;;;;;;2.73;2.00;;;22.00;99.90;;;22.61;52.26;101581.63;4913327;28;96812;-53
2022/09/01 05:26:49;;;;;;;1.73;1.60;;;22.10;98.70;;;22.62;51.96;101586.03;4910835;28;97662;-54
2022/09/01 05:29:16;;;;;;;1.60;1.50;;;22.10;99.10;;;22.67;52.81;101591.91;4916857;28;97643;-48
2022/09/01 05:31:45;;;;;;;1.40;1.30;;;22.10;99.90;;;22.66;52.50;101579.44;4916170;28;97289;-47
2022/09/01 05:34:12;;;;;;;5.13;2.37;;;22.10;99.90;;;22.68;51.08;101577.50;4911083;28;97572;-47
2022/09/01 05:36:44;;;;;;;2.30;2.10;;;22.10;98.60;;;22.64;52.30;101586.75;4914836;28;97206;-52
2022/09/01 05:39:11;;;;;;;1.43;1.33;;;22.00;99.80;;;22.65;52.67;101588.47;4911839;28;103741;-48
2022/09/01 05:41:38;;;;;;;1.40;1.30;;;22.10;99.90;;;22.64;52.25;101585.91;4907241;28;97284;-51
2022/09/01 05:44:06;;;;;;;2.07;1.60;;;22.00;99.50;;;22.67;52.15;101586.53;4899947;28;102959;-55
2022/09/01 05:46:36;;;;;;;1.33;1.20;;;22.10;99.90;;;22.69;52.59;101584.59;4899440;28;98040;-45
2022/09/01 05:49:12;;;;;;;1.60;1.50;;;22.20;99.90;;;22.66;52.33;101594.72;4901077;28;97168;-52
2022/09/01 05:51:42;;;;;;;5.93;3.20;;;22.10;99.90;;;22.68;51.75;101596.31;4905976;28;97507;-55
2022/09/01 05:54:09;;;;;;;6.70;3.00;;;22.10;99.20;;;22.63;47.77;101593.13;4905301;28;98082;-55
2022/09/01 05:56:39;;;;;;;6.83;3.27;;;22.10;98.60;;;22.51;46.99;101596.66;4906134;28;98143;-46
2022/09/01 05:59:06;;;;;;;8.50;2.93;;;21.90;98.40;;;22.40;48.50;101591.19;4908165;28;97856;-51
2022/09/01 06:01:32;;;;;;;3.10;2.80;;;21.70;98.10;;;22.33;47.83;101587.22;4905477;28;98746;-55
2022/09/01 06:04:04;;;;;;;1.87;1.40;;;21.60;97.90;;;22.37;53.36;101594.09;4899923;28;97902;-51
2022/09/01 06:06:48;;;;;;;2.33;1.87;;;21.70;99.90;;;22.42;52.98;101597.31;4906577;28;99227;-43
2022/09/01 06:09:19;;;;;;;1.70;1.60;;;21.80;99.90;;;22.53;53.02;101594.72;4902486;28;101425;-45
2022/09/01 06:11:45;;;;;;;2.33;1.40;;;22.00;99.90;;;22.59;51.76;101597.00;4898123;28;97288;-45
2022/09/01 06:14:16;;;;;;;1.50;1.40;;;22.20;99.30;;;22.63;52.37;101603.88;4904412;28;96950;-45
2022/09/01 06:16:43;;;;;;;3.03;1.40;;;22.20;99.80;;;22.71;51.50;101597.94;4907275;28;98104;-45
2022/09/01 06:19:09;;;;;;;1.40;1.30;;;22.30;98.80;;;22.74;52.12;101593.22;4904634;28;96905;-47
2022/09/01 06:21:38;;;;;;;2.43;1.50;;;22.30;99.60;;;22.77;48.21;101586.75;4903735;28;97773;-48
2022/09/01 06:24:05;;;;;;;1.67;1.50;;;22.30;96.80;;;22.79;51.18;101596.41;4900495;28;97008;-49
2022/09/01 06:26:35;;;;;;;1.80;1.50;;;22.30;98.20;;;22.76;45.84;101585.88;4904346;28;97295;-44
2022/09/01 06:29:05;;;;;;;1.37;1.27;;;22.30;97.00;;;22.74;49.79;101590.53;4901771;28;97254;-44
2022/09/01 06:31:37;;;;;;;3.20;1.67;;;22.20;96.10;;;22.68;47.59;101593.63;4903732;28;96881;-46
2022/09/01 06:34:08;;;;;;;3.57;2.47;;;22.10;96.00;;;22.71;51.26;101598.81;4903261;28;98702;-48
2022/09/01 06:36:39;;;;;;;2.17;1.40;;;22.20;97.70;;;22.73;51.41;101596.00;4902759;28;97266;-44
2022/09/01 06:39:07;;;;;;;2.90;1.93;;;22.20;98.10;;;22.68;44.67;101593.63;4902204;28;99530;-45
2022/09/01 06:41:36;;;;;;;2.73;1.63;;;22.20;95.60;;;22.68;51.26;101599.00;4904644;28;97260;-46
2022/09/01 06:44:02;;;;;;;4.20;2.30;;;22.10;98.10;;;22.68;47.08;101596.31;4915661;28;97387;-45
2022/09/01 06:46:28;;;;;;;2.27;1.50;;;22.10;95.90;;;22.67;50.93;101597.28;4905211;28;97614;-47
2022/09/01 06:48:57;;;;;;;4.60;1.53;;;22.20;97.80;;;22.59;43.40;101602.38;4909791;28;97277;-48
2022/09/01 06:51:30;;;;;;;1.30;1.20;;;22.10;95.50;;;22.74;52.38;101603.97;4900316;28;98160;-46
2022/09/01 06:53:58;;;;;;;1.03;1.03;;;22.30;99.90;;;22.84;52.06;101593.41;4911708;28;97240;-45
2022/09/01 06:56:32;;;;;;;1.33;1.23;;;22.50;99.90;;;22.95;51.86;101596.19;4911088;28;97644;-45
2022/09/01 06:59:03;;;;;;;1.83;1.23;;;22.70;99.90;;;23.02;49.63;101593.94;4922407;28;96928;-46
2022/09/01 07:01:30;;;;;;;1.60;1.33;;;22.70;96.40;;;23.09;49.87;101597.88;4906875;28;99713;-46
2022/09/01 07:03:56;;;;;;;5.80;1.93;;;22.80;97.80;;;23.14;48.77;101606.47;4911933;28;98170;-44
2022/09/01 07:06:26;;;;;;;2.80;1.40;;;22.80;96.80;;;23.17;45.18;101598.19;4915349;28;97143;-46
2022/09/01 07:09:02;;;;;;;1.27;1.17;;;22.90;97.10;;;23.25;50.96;101598.47;4915519;28;98388;-43
2022/09/01 07:11:33;;;;;;;2.27;1.30;;;23.00;99.90;;;23.30;48.53;101600.84;4913660;28;97025;-45
2022/09/01 07:14:05;;;;;;;3.30;1.53;;;23.10;97.20;;;23.33;48.13;101606.84;4913888;28;97285;-48
2022/09/01 07:16:38;;;;;;;1.70;1.10;;;23.10;96.90;;;23.36;50.72;101606.59;4917899;28;96884;-47
2022/09/01 07:19:05;;;;;;;1.23;1.00;;;23.10;99.90;;;23.38;50.45;101604.66;4908368;28;97105;-47
2022/09/01 07:21:32;;;;;;;1.27;0.90;;;23.20;99.90;;;23.43;50.41;101604.31;4917414;28;100720;-48
2022/09/01 07:24:00;;;;;;;1.80;1.20;;;23.30;99.90;;;23.48;49.60;101593.22;4914696;28;97539;-44
2022/09/01 07:26:27;;;;;;;1.43;1.00;;;23.30;98.10;;;23.53;50.02;101602.66;4909324;28;97273;-46
2022/09/01 07:28:54;;;;;;;2.37;1.17;;;23.40;99.60;;;23.52;50.24;101600.94;4920528;28;97645;-47
2022/09/01 07:31:28;;;;;;;1.50;1.30;;;23.40;99.90;;;23.58;48.50;101599.63;4917876;28;97084;-46
2022/09/01 07:33:58;;;;;;;2.43;1.20;;;23.50;98.90;;;23.57;48.69;101593.38;4912170;28;97259;-48
2022/09/01 07:36:24;;;;;;;3.47;1.50;;;23.40;98.00;;;23.57;44.02;101587.09;4913124;28;96920;-46
2022/09/01 07:38:52;;;;;;;3.33;1.27;;;23.40;94.60;;;23.49;41.85;101594.94;4913336;28;97222;-44
2022/09/01 07:41:24;;;;;;;3.10;1.53;;;23.20;93.70;;;23.43;41.13;101597.13;4918735;28;97262;-48
2022/09/01 07:43:51;;;;;;;2.67;1.50;;;23.10;93.70;;;23.37;44.66;101597.56;4917419;28;97047;-45
2022/09/01 07:46:19;;;;;;;2.93;1.00;;;23.00;93.90;;;23.32;45.64;101593.50;4909325;28;97524;-46
2022/09/01 07:48:47;;;;;;;1.17;0.97;;;23.00;94.40;;;23.33;50.12;101596.06;4913421;28;97283;-48
2022/09/01 07:51:17;;;;;;;2.13;1.30;;;23.00;99.80;;;23.33;43.17;101590.69;4917648;28;97704;-46
2022/09/01 07:53:44;;;;;;;3.47;1.40;;;23.00;94.60;;;23.25;41.32;101587.69;4907571;28;97097;-46
2022/09/01 07:56:11;;;;;;;5.43;1.40;;;22.90;93.60;;;23.22;41.35;101592.44;4915109;28;102908;-48
2022/09/01 07:58:40;;;;;;;1.93;1.20;;;22.90;93.80;;;23.21;42.67;101591.59;4915081;28;96644;-46
2022/09/01 08:01:10;;;;;;;3.60;1.30;;;22.90;94.50;;;23.16;41.47;101593.78;4909270;28;97026;-46
2022/09/01 08:03:36;;;;;;;4.97;1.20;;;22.80;93.90;;;23.19;44.97;101593.53;4916968;28;97030;-45
2022/09/01 08:06:07;;;;;;;2.47;1.17;;;22.80;94.20;;;23.20;44.38;101589.88;4914815;28;99267;-48
2022/09/01 08:08:35;;;;;;;1.43;1.10;;;22.80;94.20;;;23.25;46.13;101595.78;4910690;28;97131;-44
2022/09/01 08:11:01;;;;;;;1.03;0.97;;;22.90;96.40;;;23.29;50.17;101594.59;4892913;28;96941;-44
2022/09/01 08:13:27;;;;;;;1.97;1.00;;;23.00;99.90;;;23.29;42.45;101594.59;4908983;28;97292;-45
2022/09/01 08:15:53;;;;;;;1.43;1.33;;;23.10;94.70;;;23.37;49.87;101597.56;4909950;28;98490;-43
2022/09/01 08:18:19;;;;;;;1.00;0.90;;;23.20;99.60;;;23.41;49.99;101587.41;4911369;28;97491;-47
2022/09/01 08:20:46;;;;;;;1.30;1.20;;;23.30;99.90;;;23.31;50.39;101589.94;4899027;28;97051;-43
2022/09/01 08:23:17;;;;;;;0.90;0.90;;;23.30;99.90;;;23.29;50.41;101588.31;4912425;28;97248;-42
2022/09/01 08:25:47;;;;;;;1.40;1.17;;;23.30;99.90;;;23.39;50.18;101589.38;4909223;28;97524;-45
2022/09/01 08:28:14;;;;;;;1.53;1.00;;;23.40;99.90;;;23.26;50.48;101594.78;4910811;28;101526;-45
2022/09/01 08:30:42;;;;;;;1.40;0.80;;;23.30;99.80;;;23.42;49.94;101584.59;4918683;28;99461;-47
2022/09/01 08:33:10;;;;;;;1.83;1.23;;;23.40;99.80;;;23.42;50.02;101581.91;4913004;28;97106;-44
2022/09/01 08:35:43;;;;;;;1.40;1.07;;;23.50;99.70;;;23.33;49.94;101585.31;4917911;28;97312;-43
2022/09/01 08:38:09;;;;;;;1.38;1.20;;;23.40;99.60;;;23.39;49.44;101590.22;4920175;28;100088;-41
2022/09/01 08:40:35;;;;;;;1.33;1.00;;;23.40;99.50;;;23.40;49.82;101591.94;4913195;28;103998;-44
2022/09/01 08:43:15;;;;;;;1.23;1.10;;;23.40;99.50;;;23.53;49.12;101589.19;4908437;28;97237;-42
2022/09/01 08:45:53;;;;;;;0.80;0.80;;;23.50;99.20;;;23.44;49.44;101588.06;4917013;28;97666;-44
2022/09/01 08:48:22;;;;;;;1.15;0.90;;;23.50;99.30;;;23.29;49.78;101594.59;4898188;28;101256;-42
2022/09/01 08:50:59;;;;;;;2.05;1.05;;;23.40;99.20;;;23.43;49.28;101580.97;4898497;28;97629;-44
2022/09/01 08:53:31;;;;;;;1.70;0.90;;;23.40;99.20;;;23.43;49.27;101580.97;4919059;28;97280;-45
2022/09/01 08:55:58;;;;;;;2.35;0.90;;;23.50;99.20;;;23.36;49.49;101587.75;4912872;28;97169;-43
2022/09/01 08:58:29;;;;;;;1.73;0.82;;;23.40;99.30;;;23.46;49.26;101579.88;4916069;28;97385;-41
2022/09/01 09:01:03;;;;;;;0.60;0.60;;;23.50;99.20;;;23.50;49.03;101575.09;4900633;28;99503;-44
2022/09/01 09:03:38;;;;;;;1.27;0.90;;;23.50;99.00;;;23.45;48.85;101579.00;4912433;28;97032;-43
2022/09/01 09:06:42;;;;;;;0.88;0.88;;;23.50;98.90;;;23.54;48.88;101577.44;4911143;28;98570;-42
2022/09/01 09:09:09;;;;;;;1.30;0.73;;;23.50;99.00;;;23.56;48.17;101572.78;4905200;28;97374;-42
2022/09/01 09:12:10;;;;;;;0.90;0.83;;;23.50;98.40;;;23.51;48.54;101580.38;4912509;28;99658;-47
2022/09/01 09:15:22;;;;;;;0.88;0.88;;;23.50;98.80;;;23.54;48.79;101573.88;4914322;28;97078;-42
2022/09/01 09:17:58;;;;;;;1.00;0.80;;;23.50;98.90;;;23.51;48.68;101572.28;4898643;28;100349;-45
2022/09/01 09:20:27;;;;;;;1.53;1.10;;;23.50;98.70;;;23.55;48.56;101572.91;4916007;28;97450;-47
2022/09/01 09:22:54;;;;;;;2.42;1.20;;;23.50;98.80;;;23.66;47.85;101564.91;4904315;28;97106;-44
2022/09/01 09:25:20;;;;;;;1.17;1.00;;;23.60;98.20;;;23.56;48.47;101569.25;4915768;28;97212;-44
2022/09/01 09:27:50;;;;;;;1.10;1.00;;;23.60;98.50;;;23.61;48.38;101561.72;4905090;28;97082;-43
2022/09/01 09:30:26;;;;;;;0.87;0.87;;;23.60;98.60;;;23.59;48.13;101574.44;4922514;28;97636;-42
2022/09/01 09:33:03;;;;;;;1.00;0.80;;;23.60;98.50;;;23.70;48.13;101566.38;4916919;28;97314;-43
2022/09/01 09:35:38;;;;;;;1.00;0.80;;;23.70;98.30;;;23.59;48.56;101559.16;4921785;28;97165;-44
2022/09/01 09:38:19;;;;;;;1.87;1.10;;;23.60;98.70;;;23.56;48.97;101558.47;4912239;28;98551;-42
2022/09/01 09:41:05;;;;;;;1.10;0.70;;;23.60;98.80;;;23.52;48.36;101551.59;4925572;28;97030;-43
2022/09/01 09:43:39;;;;;;;0.70;0.70;;;23.50;98.50;;;23.56;48.72;101542.31;4914212;28;97114;-44
2022/09/01 09:46:37;;;;;;;1.75;0.90;;;23.60;98.60;;;23.54;48.77;101544.25;4910878;28;97626;-43
2022/09/01 09:49:07;;;;;;;1.40;0.90;;;23.60;98.80;;;23.50;48.64;101545.47;4929550;28;98143;-46
2022/09/01 09:51:35;;;;;;;1.30;0.82;;;23.50;98.70;;;23.53;48.28;101540.72;4920618;28;97209;-43
2022/09/01 09:54:26;;;;;;;1.02;0.93;;;23.60;98.50;;;23.65;47.56;101544.34;4907655;28;97114;-43
2022/09/01 09:57:05;;;;;;;2.17;0.80;;;23.60;97.40;;;23.72;45.79;101548.25;4907975;28;97134;-41
2022/09/01 09:59:35;;;;;;;0.73;0.73;;;23.70;96.30;;;23.60;47.89;101538.47;4915331;28;97513;-43
2022/09/01 10:02:36;;;;;;;1.60;0.93;;;23.60;98.10;;;23.70;47.21;101539.44;4912259;28;97397;-43
2022/09/01 10:05:24;;;;;;;0.80;0.80;;;23.70;97.20;;;23.62;47.75;101525.72;4921547;28;97031;-42
2022/09/01 10:07:52;;;;;;;0.80;0.80;;;23.70;97.80;;;23.59;48.01;101523.28;4912859;28;97150;-42
2022/09/01 10:10:47;;;;;;;2.63;0.90;;;23.70;98.10;;;23.76;47.14;101521.97;4912123;28;97878;-43
2022/09/01 10:13:18;;;;;;;0.80;0.80;;;23.70;96.90;;;23.80;46.84;101523.44;4903921;28;99833;-43
2022/09/01 10:15:54;;;;;;;3.30;0.70;;;23.80;97.40;;;23.70;47.17;101528.69;4924196;28;97065;-41
2022/09/01 10:18:26;;;;;;;0.70;0.65;;;23.70;97.50;;;23.66;48.03;101527.22;4909813;28;100724;-45
2022/09/01 10:21:05;;;;;;;1.30;0.75;;;23.70;98.00;;;23.65;48.10;101529.03;4909647;28;97223;-42
2022/09/01 10:23:34;;;;;;;1.50;1.00;;;23.60;98.00;;;23.77;46.27;101524.56;4914651;28;98182;-41
2022/09/01 10:26:16;;;;;;;0.95;0.80;;;23.70;95.20;;;23.75;47.78;101521.13;4910293;28;97351;-45
2022/09/01 10:28:59;;;;;;;0.95;0.85;;;23.70;97.80;;;23.81;47.25;101526.00;4927149;28;97350;-40
2022/09/01 10:31:27;;;;;;;0.90;0.70;;;23.80;97.60;;;23.81;46.98;101520.63;4909871;28;103231;-42
2022/09/01 10:33:53;;;;;;;1.17;0.77;;;23.80;97.50;;;23.71;47.42;101519.63;4914151;28;97456;-44
2022/09/01 10:36:21;;;;;;;0.90;0.80;;;23.70;98.20;;;23.79;47.05;101509.13;4917443;28;97088;-45